createdAt,value
2023-10-20T00:00:36.654Z,6.20
2023-10-20T00:05:41.952Z,5.68
2023-10-20T00:10:47.233Z,4.30
2023-10-20T00:15:52.699Z,7.10
2023-10-20T00:20:57.890Z,5.00
2023-10-20T00:26:03.573Z,4.47
2023-10-20T00:31:13.016Z,4.47
2023-10-20T00:36:19.016Z,5.28
2023-10-20T00:41:24.555Z,6.30
2023-10-20T00:46:30.754Z,5.07
2023-10-20T00:51:36.237Z,4.85
2023-10-20T00:56:44.117Z,7.30
2023-10-20T01:01:49.536Z,5.70
2023-10-20T01:06:55.791Z,3.45
2023-10-20T01:12:01.436Z,6.03
2023-10-20T01:17:06.984Z,6.57
2023-10-20T01:22:12.395Z,5.78
2023-10-20T01:27:18.093Z,6.30
2023-10-20T01:32:23.738Z,5.25
2023-10-20T01:37:29.567Z,12.68
2023-10-20T01:42:34.887Z,5.88
2023-10-20T01:47:40.573Z,4.50
2023-10-20T01:52:46.273Z,6.53
2023-10-20T01:57:52.672Z,4.97
2023-10-20T02:02:58.112Z,5.30
2023-10-20T02:08:04.170Z,5.28
2023-10-20T02:13:09.493Z,5.07
2023-10-20T02:18:15.350Z,7.43
2023-10-20T02:23:42.480Z,4.85
2023-10-20T02:28:49.149Z,5.10
2023-10-20T02:33:54.480Z,4.75
2023-10-20T02:39:00.523Z,5.35
2023-10-20T02:44:06.055Z,6.25
2023-10-20T02:49:11.509Z,4.60
2023-10-20T02:54:17.007Z,5.90
2023-10-20T02:59:22.423Z,5.82
2023-10-20T03:04:28.029Z,4.93
2023-10-20T03:09:33.516Z,5.88
2023-10-20T03:14:38.825Z,3.80
2023-10-20T03:19:47.191Z,6.78
2023-10-20T03:24:52.552Z,5.80
2023-10-20T03:29:58.155Z,4.72
2023-10-20T03:35:04.095Z,6.60
2023-10-20T03:40:18.082Z,9.02
2023-10-20T03:45:26.376Z,3.83
2023-10-20T03:50:37.642Z,7.97
2023-10-20T03:55:43.242Z,6.68
2023-10-20T04:00:48.763Z,6.20
2023-10-20T04:05:55.421Z,6.20
2023-10-20T04:11:01.767Z,5.47
2023-10-20T04:16:14.597Z,34.70
2023-10-20T04:21:19.692Z,10.80
2023-10-20T04:26:23.827Z,5.90
2023-10-20T04:31:46.689Z,5.55
2023-10-20T04:37:09.458Z,3.80
2023-10-20T04:42:19.539Z,9.05
2023-10-20T04:47:26.712Z,5.07
2023-10-20T04:52:49.774Z,7.00
2023-10-20T04:57:54.193Z,7.00
2023-10-20T05:03:04.133Z,7.70
2023-10-20T05:08:15.028Z,7.38
2023-10-20T05:13:25.279Z,6.25
2023-10-20T05:18:33.405Z,7.18
2023-10-20T05:23:40.782Z,9.23
2023-10-20T05:28:45.853Z,7.43
2023-10-20T05:33:50.052Z,8.52
2023-10-20T05:38:54.501Z,8.10
2023-10-20T05:43:59.770Z,7.68
2023-10-20T05:49:03.939Z,7.95
2023-10-20T05:54:09.319Z,8.10
2023-10-20T05:59:14.498Z,6.47
2023-10-20T06:04:19.012Z,8.80
2023-10-20T06:09:23.765Z,9.98
2023-10-20T06:14:28.581Z,6.97
2023-10-20T06:19:33.542Z,7.25
2023-10-20T06:24:37.826Z,8.05
2023-10-20T06:29:45.036Z,6.38
2023-10-20T06:34:50.057Z,7.20
2023-10-20T06:39:54.195Z,8.95
2023-10-20T06:44:58.448Z,7.28
2023-10-20T06:50:02.809Z,7.05
2023-10-20T06:55:40.186Z,7.70
2023-10-20T07:00:32.578Z,7.57
2023-10-20T07:05:39.332Z,6.18
2023-10-20T07:10:43.813Z,9.48
2023-10-20T07:15:48.008Z,4.80
2023-10-20T07:20:54.583Z,7.82
2023-10-20T07:26:00.722Z,8.52
2023-10-20T07:31:15.083Z,5.32
2023-10-20T07:36:19.599Z,6.47
2023-10-20T07:41:24.082Z,8.90
2023-10-20T07:46:28.299Z,6.40
2023-10-20T07:51:32.574Z,5.28
2023-10-20T07:56:37.234Z,5.53
2023-10-20T08:01:41.996Z,5.72
2023-10-20T08:06:46.394Z,5.18
2023-10-20T08:11:51.875Z,5.85
2023-10-20T08:16:57.328Z,6.00
2023-10-20T08:22:01.780Z,5.15
2023-10-20T08:27:06.426Z,4.60
2023-10-20T08:32:10.674Z,7.03
2023-10-20T08:37:15.057Z,3.35
2023-10-20T08:42:20.132Z,4.50
2023-10-20T08:47:26.847Z,5.43
2023-10-20T08:52:33.024Z,4.13
2023-10-20T08:57:37.221Z,3.83
2023-10-20T09:02:41.620Z,3.67
2023-10-20T09:07:55.736Z,3.95
2023-10-20T09:12:59.961Z,4.13
2023-10-20T09:18:04.380Z,3.85
2023-10-20T09:23:13.471Z,3.45
2023-10-20T09:28:19.677Z,4.50
2023-10-20T09:33:25.628Z,5.68
2023-10-20T09:38:32.601Z,4.07
2023-10-20T09:48:49.514Z,7.50
2023-10-20T09:59:03.707Z,4.22
2023-10-20T10:04:10.456Z,3.25
2023-10-20T10:09:16.822Z,6.18
2023-10-20T10:14:23.967Z,3.88
2023-10-20T10:29:55.802Z,5.50
2023-10-20T10:35:01.013Z,2.97
2023-10-20T10:40:15.833Z,3.50
2023-10-20T10:45:36.042Z,5.53
2023-10-20T10:50:50.860Z,3.35
2023-10-20T10:55:56.134Z,4.05
2023-10-20T11:01:03.161Z,3.67
2023-10-20T11:06:10.249Z,3.35
2023-10-20T11:11:17.416Z,2.95
2023-10-20T11:16:21.662Z,2.80
2023-10-20T11:21:31.821Z,3.55
2023-10-20T11:26:40.992Z,4.18
2023-10-20T11:31:46.874Z,6.55
2023-10-20T11:36:51.223Z,5.28
2023-10-20T11:41:55.972Z,3.55
2023-10-20T11:47:00.398Z,4.82
2023-10-20T11:52:04.644Z,2.42
2023-10-20T11:57:10.796Z,2.75
2023-10-20T12:02:15.488Z,4.43
2023-10-20T12:07:22.443Z,3.72
2023-10-20T12:12:26.821Z,4.38
2023-10-20T12:17:31.076Z,2.92
2023-10-20T12:22:35.483Z,2.83
2023-10-20T12:27:40.922Z,5.57
2023-10-20T12:32:45.478Z,3.08
2023-10-20T12:37:49.660Z,4.28
2023-10-20T12:42:54.005Z,6.47
2023-10-20T12:47:58.371Z,3.30
2023-10-20T12:53:05.127Z,3.75
2023-10-20T12:58:10.789Z,3.42
2023-10-20T13:03:16.586Z,3.05
2023-10-20T13:08:22.879Z,2.95
2023-10-20T13:13:30.527Z,5.90
2023-10-20T13:18:37.566Z,4.78
2023-10-20T13:23:42.913Z,3.10
2023-10-20T13:28:48.415Z,3.55
2023-10-20T13:33:53.955Z,2.45
2023-10-20T13:38:59.341Z,3.47
2023-10-20T13:44:05.271Z,2.50
2023-10-20T13:49:10.571Z,2.00
2023-10-20T13:54:15.975Z,42.70
2023-10-20T13:59:21.906Z,45.08
2023-10-20T14:04:27.430Z,29.60
2023-10-20T14:09:32.925Z,39.75
2023-10-20T14:14:38.562Z,44.50
2023-10-20T14:19:44.186Z,155.40
2023-10-20T14:24:49.726Z,203.85
2023-10-20T14:29:56.076Z,154.77
2023-10-20T14:35:01.748Z,88.10
2023-10-20T14:40:13.477Z,64.75
2023-10-20T14:45:19.113Z,46.63
2023-10-20T14:50:26.781Z,24.42
2023-10-20T14:55:37.958Z,15.07
2023-10-20T15:00:51.079Z,13.55
2023-10-20T15:05:56.491Z,7.28
2023-10-20T15:11:08.666Z,12.38
2023-10-20T15:16:19.820Z,19.75
2023-10-20T15:21:26.810Z,13.35
2023-10-20T15:26:32.329Z,13.75
2023-10-20T15:31:37.895Z,13.05
2023-10-20T15:36:49.607Z,6.60
2023-10-20T15:41:55.715Z,8.02
2023-10-20T15:47:01.343Z,6.78
2023-10-20T15:52:06.976Z,5.38
2023-10-20T15:57:12.158Z,5.35
2023-10-20T16:02:17.963Z,4.78
2023-10-20T16:07:23.684Z,7.70
2023-10-20T16:12:29.535Z,5.03
2023-10-20T16:17:35.309Z,8.57
2023-10-20T16:22:41.105Z,4.45
2023-10-20T16:27:46.510Z,10.40
2023-10-20T16:32:52.184Z,8.93
2023-10-20T16:37:57.961Z,5.72
2023-10-20T16:43:03.472Z,4.65
2023-10-20T16:48:09.174Z,3.55
2023-10-20T16:53:14.656Z,4.93
2023-10-20T16:58:20.562Z,3.75
2023-10-20T17:03:26.142Z,6.10
2023-10-20T17:08:32.291Z,4.40
2023-10-20T17:13:37.793Z,5.90
2023-10-20T17:18:43.376Z,2.72
2023-10-20T17:23:49.145Z,2.67
2023-10-20T17:28:54.811Z,3.67
2023-10-20T17:34:00.235Z,4.03
2023-10-20T17:39:07.931Z,3.70
2023-10-20T17:44:14.163Z,5.03
2023-10-20T17:49:19.579Z,4.57
2023-10-20T17:54:25.086Z,3.63
2023-10-20T17:59:31.176Z,5.03
2023-10-20T18:04:36.739Z,5.40
2023-10-20T18:09:42.330Z,5.22
2023-10-20T18:14:48.584Z,6.82
2023-10-20T18:19:54.222Z,5.30
2023-10-20T18:24:59.795Z,7.15
2023-10-20T18:30:05.835Z,7.57
2023-10-20T18:35:12.404Z,5.93
2023-10-20T18:40:18.013Z,6.03
2023-10-20T18:45:24.482Z,5.20
2023-10-20T18:50:29.860Z,5.88
2023-10-20T18:55:35.716Z,6.57
2023-10-20T19:00:41.187Z,6.40
2023-10-20T19:05:46.901Z,9.10
2023-10-20T19:10:52.572Z,7.43
2023-10-20T19:15:58.243Z,7.70
2023-10-20T19:21:06.596Z,6.07
2023-10-20T19:26:12.358Z,6.50
2023-10-20T19:31:17.748Z,8.13
2023-10-20T19:36:23.203Z,6.60
2023-10-20T19:41:28.687Z,9.02
2023-10-20T19:46:34.213Z,8.77
2023-10-20T19:51:39.886Z,6.75
2023-10-20T19:56:45.567Z,11.23
2023-10-20T20:01:51.239Z,8.52
2023-10-20T20:06:56.784Z,8.15
2023-10-20T20:12:02.114Z,7.30
2023-10-20T20:17:07.715Z,8.73
2023-10-20T20:22:13.089Z,9.40
2023-10-20T20:27:18.504Z,7.45
2023-10-20T20:32:24.050Z,7.32
2023-10-20T20:37:31.242Z,6.97
2023-10-20T20:42:37.360Z,8.13
2023-10-20T20:47:43.116Z,7.93
2023-10-20T20:52:48.761Z,7.45
2023-10-20T20:57:54.298Z,9.43
2023-10-20T21:03:00.045Z,8.45
2023-10-20T21:08:05.832Z,7.80
2023-10-20T21:13:11.241Z,8.75
2023-10-20T21:18:16.868Z,8.05
2023-10-20T21:23:22.393Z,7.75
2023-10-20T21:28:28.227Z,10.32
2023-10-20T21:33:34.612Z,12.30
2023-10-20T21:38:40.082Z,16.80
2023-10-20T21:43:45.415Z,10.70
2023-10-20T21:48:51.223Z,7.90
2023-10-20T21:53:56.813Z,11.70
2023-10-20T21:59:02.366Z,9.70
2023-10-20T22:04:08.236Z,8.93
2023-10-20T22:09:14.511Z,11.90
2023-10-20T22:14:20.348Z,13.38
2023-10-20T22:19:26.320Z,7.57
2023-10-20T22:24:31.835Z,11.23
2023-10-20T22:29:37.995Z,7.45
2023-10-20T22:34:43.942Z,7.05
2023-10-20T22:39:50.430Z,6.38
2023-10-20T22:44:58.052Z,9.13
2023-10-20T22:50:08.220Z,5.85
2023-10-20T22:55:16.924Z,12.60
2023-10-20T23:00:23.876Z,6.22
2023-10-20T23:05:30.242Z,8.05
2023-10-20T23:10:35.932Z,7.68
2023-10-20T23:15:42.944Z,7.78
2023-10-20T23:20:48.517Z,6.95
2023-10-20T23:25:54.132Z,6.50
2023-10-20T23:30:59.619Z,6.07
2023-10-20T23:36:05.603Z,7.07
2023-10-20T23:41:11.361Z,8.25
2023-10-20T23:46:16.799Z,7.00
2023-10-20T23:51:22.828Z,8.32
2023-10-20T23:56:28.320Z,6.97
